Time;durP1;ratioP1;P1;durP2;ratioP2;P2;SDS_P1;SDS_P2;PMS_P1;PMS_P2;Temp;Humidity;BMP_temperature;BMP_pressure;BME280_temperature;BME280_humidity;BME280_pressure;Samples;Min_cycle;Max_cycle;Signal;HPM_P1;HPM_P2
2022/09/21 00:01:25;;;;;;;19.35;11.25;;;;;;;8.46;92.98;100426.23;1752796;80;25602;-70
2022/09/21 00:03:55;;;;;;;21.65;12.30;;;;;;;8.49;93.17;100436.44;1753733;80;25604;-69
2022/09/21 00:06:25;;;;;;;16.77;11.60;;;;;;;8.51;93.34;100431.55;1750550;80;28620;-68
2022/09/21 00:08:52;;;;;;;;;;;;;;;8.52;93.45;100434.52;1751190;80;25595;-69
2022/09/21 00:11:26;;;;;;;16.37;10.82;;;;;;;8.55;93.76;100432.04;1755902;80;25574;-69
2022/09/21 00:13:56;;;;;;;19.70;12.13;;;;;;;8.57;93.81;100431.75;1753136;80;26178;-70
2022/09/21 00:16:23;;;;;;;17.02;12.05;;;;;;;8.58;93.88;100432.81;1747969;80;25702;-69
2022/09/21 00:18:49;;;;;;;20.72;12.82;;;;;;;8.62;93.98;100429.53;1752249;80;28012;-69
2022/09/21 00:21:17;;;;;;;18.10;12.00;;;;;;;8.64;93.96;100430.83;1752450;80;25607;-68
2022/09/21 00:23:45;;;;;;;19.12;12.20;;;;;;;8.66;94.10;100435.94;1752864;80;25325;-69
2022/09/21 00:26:19;;;;;;;18.17;11.83;;;;;;;8.68;94.29;100427.00;1755879;80;25611;-69
2022/09/21 00:28:53;;;;;;;17.70;12.20;;;;;;;8.71;94.38;100430.47;1738826;80;25293;-69
2022/09/21 00:31:20;;;;;;;20.55;13.10;;;;;;;8.73;94.34;100430.97;1752360;80;28003;-70
2022/09/21 00:33:47;;;;;;;20.40;13.25;;;;;;;8.76;94.39;100434.43;1689785;84;25735;-69
2022/09/21 00:36:17;;;;;;;21.55;13.30;;;;;;;8.77;94.46;100435.49;1750691;80;25732;-69
2022/09/21 00:38:47;;;;;;;25.25;13.62;;;;;;;8.79;94.52;100437.90;1754050;80;26260;-70
2022/09/21 00:41:13;;;;;;;22.07;14.00;;;;;;;8.82;94.65;100435.97;1753281;80;25261;-69
2022/09/21 00:43:46;;;;;;;23.77;14.90;;;;;;;8.84;94.76;100433.77;1719604;83;27314;-69
2022/09/21 00:46:24;;;;;;;22.00;14.07;;;;;;;8.87;94.82;100429.67;1749252;80;25702;-70
2022/09/21 00:48:51;;;;;;;27.10;15.58;;;;;;;8.89;94.82;100435.59;1747079;81;25365;-70
2022/09/21 00:51:21;;;;;;;23.22;14.95;;;;;;;8.91;94.88;100435.55;1750208;81;25644;-70
2022/09/21 00:53:53;;;;;;;22.70;13.53;;;;;;;8.94;94.91;100431.47;1750340;81;25430;-70
2022/09/21 00:56:21;;;;;;;21.45;14.03;;;;;;;8.96;94.95;100440.86;1750348;80;28195;-69
2022/09/21 00:58:51;;;;;;;25.52;14.03;;;;;;;8.96;94.95;100436.81;1750221;82;25653;-69
2022/09/21 01:01:19;;;;;;;21.02;13.48;;;;;;;8.98;94.98;100434.61;1750279;81;25741;-69
2022/09/21 01:03:48;;;;;;;24.67;14.50;;;;;;;9.02;95.05;100435.38;1750244;80;25615;-69
2022/09/21 01:06:18;;;;;;;23.92;14.63;;;;;;;9.02;95.04;100440.22;1750564;81;25396;-69
2022/09/21 01:08:51;;;;;;;23.00;15.10;;;;;;;9.04;95.07;100429.13;1750551;81;27313;-70
2022/09/21 01:11:35;;;;;;;26.68;14.78;;;;;;;9.06;95.05;100441.78;1750489;82;25354;-70
2022/09/21 01:14:41;;;;;;;26.10;15.63;;;;;;;9.07;95.07;100437.44;1742819;81;25468;-69
2022/09/21 01:17:25;;;;;;;23.75;13.70;;;;;;;9.09;95.05;100435.80;1742914;82;26170;-70
2022/09/21 01:20:23;;;;;;;25.95;15.28;;;;;;;9.11;95.09;100437.67;1742439;82;25200;-70
2022/09/21 01:23:13;;;;;;;25.90;16.17;;;;;;;9.11;95.03;100438.47;1719987;82;27342;-69
2022/09/21 01:26:00;;;;;;;23.00;13.13;;;;;;;9.12;95.15;100437.91;1719563;82;25798;-69
2022/09/21 01:28:55;;;;;;;21.55;13.53;;;;;;;9.13;95.21;100440.87;1719706;83;25689;-68
2022/09/21 01:31:29;;;;;;;25.60;14.70;;;;;;;9.14;95.23;100443.80;1718871;83;25662;-70
2022/09/21 01:34:01;;;;;;;23.70;13.43;;;;;;;9.14;95.33;100450.55;1719968;82;25711;-69
2022/09/21 01:36:30;;;;;;;22.70;13.90;;;;;;;9.14;95.30;100450.55;1720105;82;27329;-68
2022/09/21 01:39:09;;;;;;;24.77;14.33;;;;;;;9.16;95.37;100451.08;1720125;82;25641;-68
2022/09/21 01:41:38;;;;;;;27.80;15.00;;;;;;;9.18;95.42;100450.23;1720381;82;25660;-68
2022/09/21 01:44:09;;;;;;;25.20;14.33;;;;;;;9.18;95.52;100450.23;1700010;82;25784;-69
2022/09/21 01:46:38;;;;;;;21.70;13.62;;;;;;;9.20;95.59;100453.43;1720107;83;25523;-68
2022/09/21 01:49:20;;;;;;;21.42;14.40;;;;;;;9.22;95.62;100455.84;1695937;83;27509;-68
2022/09/21 01:51:57;;;;;;;21.10;13.75;;;;;;;9.21;95.63;100455.05;1720059;82;25602;-69
2022/09/21 01:54:29;;;;;;;21.15;13.43;;;;;;;9.22;95.63;100455.28;1720126;82;25496;-68
2022/09/21 01:57:10;;;;;;;24.32;14.90;;;;;;;9.24;95.74;100453.08;1720074;83;26221;-70
2022/09/21 01:59:53;;;;;;;26.20;15.53;;;;;;;9.23;95.75;100456.89;1716615;82;25637;-68
2022/09/21 02:02:37;;;;;;;21.57;13.43;;;;;;;9.26;95.79;100458.19;1742304;82;27474;-68
2022/09/21 02:05:06;;;;;;;24.05;13.78;;;;;;;9.26;95.94;100460.36;1742909;82;25901;-69
2022/09/21 02:07:34;;;;;;;22.93;14.98;;;;;;;9.29;96.03;100461.65;1743067;82;25596;-69
2022/09/21 02:10:03;;;;;;;20.92;13.98;;;;;;;9.29;96.12;100463.80;1742954;82;25616;-69
2022/09/21 02:12:31;;;;;;;22.17;14.75;;;;;;;9.31;96.12;100466.20;1742874;81;30408;-70
2022/09/21 02:14:59;;;;;;;23.05;14.28;;;;;;;9.32;96.20;100470.52;1704662;84;28552;-68
2022/09/21 02:17:37;;;;;;;22.32;13.80;;;;;;;9.35;96.24;100471.27;1705405;83;25615;-68
2022/09/21 02:20:10;;;;;;;22.90;14.23;;;;;;;9.36;96.25;100472.86;1705409;83;25574;-68
2022/09/21 02:23:03;;;;;;;25.57;14.40;;;;;;;9.37;96.25;100470.98;1704374;83;26268;-69
2022/09/21 02:25:49;;;;;;;21.80;14.28;;;;;;;9.38;96.26;100467.17;1689911;83;25763;-69
2022/09/21 02:28:21;;;;;;;22.87;14.58;;;;;;;9.40;96.33;100468.48;1705214;83;27328;-69
2022/09/21 02:30:58;;;;;;;25.95;13.93;;;;;;;9.40;96.45;100461.73;1704925;83;25803;-69
2022/09/21 02:33:39;;;;;;;25.08;15.10;;;;;;;9.42;96.50;100464.94;1705210;83;25397;-70
2022/09/21 02:36:20;;;;;;;24.98;17.05;;;;;;;9.42;96.49;100456.05;1705433;83;26143;-70
2022/09/21 02:38:54;;;;;;;27.42;14.85;;;;;;;9.43;96.50;100463.85;1692092;84;25335;-69
2022/09/21 02:41:31;;;;;;;23.22;14.50;;;;;;;9.45;96.54;100464.88;1705614;83;27624;-69
2022/09/21 02:44:18;;;;;;;26.62;14.65;;;;;;;9.45;96.64;100466.23;1705507;84;25511;-67
2022/09/21 02:47:09;;;;;;;26.80;15.80;;;;;;;9.46;96.68;100468.63;1705588;83;25665;-69
2022/09/21 02:49:44;;;;;;;27.07;15.70;;;;;;;9.46;96.70;100477.29;1690210;83;26348;-68
2022/09/21 02:52:15;;;;;;;26.33;15.38;;;;;;;9.47;96.80;100476.20;1705604;83;25649;-69
2022/09/21 02:54:46;;;;;;;27.85;16.07;;;;;;;9.49;96.95;100484.80;1704873;84;27952;-68
2022/09/21 02:57:16;;;;;;;28.15;15.50;;;;;;;9.50;96.91;100480.98;1705248;83;25341;-69
2022/09/21 02:59:44;;;;;;;25.25;15.58;;;;;;;9.51;96.95;100492.05;1705160;83;26065;-68
2022/09/21 03:02:14;;;;;;;27.20;16.25;;;;;;;9.51;96.96;100491.49;1705188;83;26206;-68
2022/09/21 03:04:43;;;;;;;27.82;14.95;;;;;;;9.52;96.97;100489.62;1705237;84;25411;-68
2022/09/21 03:07:09;;;;;;;27.30;15.53;;;;;;;9.52;97.08;100490.41;1705292;83;27359;-68
2022/09/21 03:09:36;;;;;;;25.55;15.75;;;;;;;9.54;97.09;100490.11;1705165;83;25529;-68
2022/09/21 03:12:04;;;;;;;28.38;16.50;;;;;;;9.56;97.07;100488.47;1705188;83;25429;-69
2022/09/21 03:14:31;;;;;;;27.00;15.18;;;;;;;9.58;97.18;100487.62;1720484;82;25823;-69
2022/09/21 03:16:59;;;;;;;25.55;15.15;;;;;;;9.58;97.08;100488.41;1722627;82;25713;-69
2022/09/21 03:19:28;;;;;;;29.37;15.95;;;;;;;9.58;97.06;100493.81;1722524;82;27773;-69
2022/09/21 03:21:55;;;;;;;27.23;15.10;;;;;;;9.59;97.09;100491.37;1722724;82;25700;-69
2022/09/21 03:27:08;;;;;;;24.90;14.95;;;;;;;9.61;97.19;100493.22;1722546;82;25617;-69
2022/09/21 03:29:34;;;;;;;26.20;16.48;;;;;;;9.62;97.16;100495.37;1722551;82;25462;-69
2022/09/21 03:32:01;;;;;;;29.18;16.17;;;;;;;9.63;97.19;100496.98;1722498;83;27425;-69
2022/09/21 03:34:28;;;;;;;24.82;15.45;;;;;;;9.63;97.20;100499.13;1722395;82;25379;-69
2022/09/21 03:36:55;;;;;;;23.95;14.78;;;;;;;9.64;97.20;100495.89;1722534;83;25290;-69
2022/09/21 03:39:23;;;;;;;26.93;14.15;;;;;;;9.65;97.22;100500.17;1722814;82;26189;-69
2022/09/21 03:41:49;;;;;;;31.00;16.37;;;;;;;9.65;97.26;100504.23;1722545;82;25490;-69
2022/09/21 03:44:16;;;;;;;21.75;13.68;;;;;;;9.67;97.32;100504.20;1722529;82;27460;-68
2022/09/21 03:46:43;;;;;;;24.45;15.85;;;;;;;9.67;97.27;100511.48;1722468;83;26407;-69
2022/09/21 03:49:11;;;;;;;25.68;15.38;;;;;;;9.67;97.36;100509.60;1722529;82;25547;-69
2022/09/21 03:51:38;;;;;;;24.10;14.40;;;;;;;9.67;97.41;100508.78;1722471;82;26632;-69
2022/09/21 03:54:05;;;;;;;26.70;15.68;;;;;;;9.69;97.43;100514.15;1722548;82;25660;-70
2022/09/21 03:56:33;;;;;;;26.60;15.35;;;;;;;9.69;97.48;100510.09;1722485;83;27996;-69
2022/09/21 03:59:00;;;;;;;26.10;14.38;;;;;;;9.71;97.52;100512.50;1722444;82;25399;-69
2022/09/21 04:01:26;;;;;;;25.88;15.75;;;;;;;9.71;97.58;100512.50;1701893;83;25586;-69
2022/09/21 04:03:53;;;;;;;21.75;14.33;;;;;;;9.72;97.65;100510.04;1722437;82;26615;-69
2022/09/21 04:06:20;;;;;;;24.92;15.20;;;;;;;9.74;97.61;100511.92;1722523;83;25462;-70
2022/09/21 04:08:46;;;;;;;24.80;14.80;;;;;;;9.76;97.64;100511.06;1722496;82;27335;-69
2022/09/21 04:11:17;;;;;;;23.12;13.38;;;;;;;9.77;97.61;100511.86;1722423;82;25441;-70
2022/09/21 04:13:47;;;;;;;21.50;13.78;;;;;;;9.78;97.62;100514.82;1721565;82;26109;-68
2022/09/21 04:16:16;;;;;;;20.17;12.80;;;;;;;9.79;97.63;100524.51;1703483;83;26323;-69
2022/09/21 04:18:42;;;;;;;24.15;13.78;;;;;;;9.80;97.68;100528.27;1703485;83;25602;-69
2022/09/21 04:21:09;;;;;;;21.57;13.08;;;;;;;9.82;97.74;100525.27;1704358;83;27918;-69
2022/09/21 04:23:35;;;;;;;22.58;12.58;;;;;;;9.82;97.78;100528.77;1745217;81;25683;-70
2022/09/21 04:26:04;;;;;;;21.17;12.78;;;;;;;9.84;97.81;100531.17;1744089;81;25510;-69
2022/09/21 04:28:31;;;;;;;20.00;12.45;;;;;;;9.85;97.75;100528.17;1745285;81;25976;-69
2022/09/21 04:30:58;;;;;;;22.22;13.10;;;;;;;9.86;97.75;100530.34;1745297;81;25417;-69
2022/09/21 04:33:24;;;;;;;23.12;11.45;;;;;;;9.88;97.85;100532.20;1683084;84;28131;-69
2022/09/21 04:35:55;;;;;;;20.02;12.13;;;;;;;9.89;97.79;100533.78;1692096;83;25600;-69
2022/09/21 04:38:22;;;;;;;18.95;12.58;;;;;;;9.90;97.78;100534.84;1703532;83;25656;-68
2022/09/21 04:41:17;;;;;;;26.85;11.88;;;;;;;9.91;97.84;100532.40;1703569;83;25970;-68
2022/09/21 04:43:46;;;;;;;21.77;12.58;;;;;;;9.93;97.84;100539.38;1640921;86;25598;-69
2022/09/21 04:46:20;;;;;;;17.57;11.80;;;;;;;9.93;97.88;100542.09;1640959;86;27356;-69
2022/09/21 04:48:48;;;;;;;19.55;13.58;;;;;;;9.93;97.99;100540.20;1640786;86;25462;-69
2022/09/21 04:51:18;;;;;;;17.23;11.65;;;;;;;9.96;98.05;100542.32;1640760;87;25694;-69
2022/09/21 04:53:47;;;;;;;19.75;11.08;;;;;;;9.98;98.13;100540.11;1640797;86;25708;-69
2022/09/21 04:56:15;;;;;;;18.40;12.13;;;;;;;9.98;98.07;100538.77;1641036;87;25579;-69
2022/09/21 04:58:43;;;;;;;19.55;11.70;;;;;;;10.01;98.17;100542.75;1640830;86;27501;-68
2022/09/21 05:01:10;;;;;;;20.08;10.72;;;;;;;10.02;98.31;100550.56;1640758;86;25531;-68
2022/09/21 05:03:37;;;;;;;16.73;11.35;;;;;;;10.03;98.27;100556.23;1640830;87;25470;-69
2022/09/21 05:06:05;;;;;;;16.50;10.28;;;;;;;10.03;98.26;100553.53;1642805;86;26249;-68
2022/09/21 05:11:18;;;;;;;16.05;10.82;;;;;;;10.08;98.46;100563.45;1669528;85;27855;-69
2022/09/21 05:13:46;;;;;;;14.20;9.75;;;;;;;10.09;98.39;100559.08;1714682;82;25571;-69
2022/09/21 05:16:15;;;;;;;15.80;9.53;;;;;;;10.12;98.50;100559.60;1705601;83;25752;-70
2022/09/21 05:18:43;;;;;;;14.47;9.53;;;;;;;10.14;98.52;100558.74;1733320;82;25609;-69
2022/09/21 05:21:13;;;;;;;16.35;9.38;;;;;;;10.14;98.51;100562.23;1707248;83;25750;-70
2022/09/21 05:23:40;;;;;;;15.23;9.18;;;;;;;10.17;98.67;100563.00;1728941;82;27319;-68
2022/09/21 05:26:07;;;;;;;15.03;9.13;;;;;;;10.20;98.66;100572.40;1704683;83;25737;-68
2022/09/21 05:28:35;;;;;;;13.72;8.83;;;;;;;10.22;98.66;100572.36;1729827;82;25685;-73
2022/09/21 05:31:39;;;;;;;13.83;9.35;;;;;;;10.24;98.78;100579.62;1693414;83;26234;-70
2022/09/21 05:34:22;;;;;;;13.68;8.75;;;;;;;10.26;98.69;100581.47;1727087;82;25220;-68
2022/09/21 05:36:58;;;;;;;11.40;7.83;;;;;;;10.27;98.66;100583.08;1707452;83;29457;-69
2022/09/21 05:39:26;;;;;;;11.30;7.58;;;;;;;10.29;98.75;100580.88;1715707;82;25558;-69
2022/09/21 05:41:55;;;;;;;12.03;7.80;;;;;;;10.32;98.77;100582.75;1687188;84;25696;-68
2022/09/21 05:44:22;;;;;;;12.98;7.22;;;;;;;10.34;98.83;100585.42;1696055;84;25628;-68
2022/09/21 05:47:00;;;;;;;12.13;7.55;;;;;;;10.36;99.02;100585.91;1665867;85;25475;-67
2022/09/21 05:49:58;;;;;;;10.15;7.92;;;;;;;10.41;99.05;100592.58;1716039;83;27494;-67
2022/09/21 05:52:42;;;;;;;10.50;7.80;;;;;;;10.43;98.95;100594.42;1730738;82;26192;-68
2022/09/21 05:55:40;;;;;;;9.23;7.15;;;;;;;10.46;99.04;100590.33;1684734;84;25624;-68
2022/09/21 05:58:27;;;;;;;10.23;6.83;;;;;;;10.48;99.10;100595.44;1691773;83;25617;-67
2022/09/21 06:01:34;;;;;;;10.38;6.42;;;;;;;10.53;99.21;100592.64;1731382;82;25604;-67
2022/09/21 06:04:03;;;;;;;10.93;7.10;;;;;;;10.56;99.37;100594.75;1724431;82;28028;-68
2022/09/21 06:06:30;;;;;;;9.80;7.12;;;;;;;10.60;99.31;100599.23;1696892;84;25716;-67
2022/09/21 06:08:57;;;;;;;10.58;6.97;;;;;;;10.63;99.49;100597.84;1694089;84;25279;-68
2022/09/21 06:11:23;;;;;;;9.10;6.58;;;;;;;10.67;99.43;100595.33;1726210;82;26187;-67
2022/09/21 06:13:49;;;;;;;10.05;6.40;;;;;;;10.71;99.39;100599.84;1670099;84;25818;-68
2022/09/21 06:16:15;;;;;;;11.48;7.40;;;;;;;10.74;99.48;100604.62;1722353;82;27303;-67
2022/09/21 06:18:41;;;;;;;11.22;6.97;;;;;;;10.79;98.86;100607.23;1720730;82;33088;-67
2022/09/21 06:21:08;;;;;;;12.95;8.35;;;;;;;10.79;98.86;100607.23;1720559;82;25657;-68
2022/09/21 06:23:36;;;;;;;10.45;7.67;;;;;;;10.81;98.88;100605.05;1722942;82;25735;-67
2022/09/21 06:26:02;;;;;;;10.10;6.67;;;;;;;10.84;98.93;100607.15;1724328;82;25256;-68
2022/09/21 06:28:29;;;;;;;11.85;7.42;;;;;;;10.88;98.91;100602.45;1694042;84;27474;-67
2022/09/21 06:30:57;;;;;;;9.20;6.75;;;;;;;10.90;98.66;100609.19;1721710;82;26386;-67
2022/09/21 06:33:24;;;;;;;11.83;6.75;;;;;;;10.92;98.55;100615.66;1719779;82;25613;-67
2022/09/21 06:35:55;;;;;;;10.50;6.83;;;;;;;10.94;98.57;100610.73;1716900;82;25686;-68
2022/09/21 06:38:23;;;;;;;9.40;6.37;;;;;;;10.98;98.79;100615.24;1723656;82;25619;-67
2022/09/21 06:40:51;;;;;;;8.20;5.72;;;;;;;11.01;98.63;100620.02;1720146;83;27899;-67
2022/09/21 06:43:18;;;;;;;6.25;5.62;;;;;;;11.02;98.13;100620.28;1718131;82;25641;-67
2022/09/21 06:45:54;;;;;;;8.80;6.00;;;;;;;11.03;98.14;100619.19;1698143;83;25493;-67
2022/09/21 06:48:21;;;;;;;10.95;6.40;;;;;;;11.06;97.89;100626.45;1694834;83;25601;-71
2022/09/21 06:50:48;;;;;;;9.10;5.33;;;;;;;11.04;97.48;100626.75;1695097;83;25756;-68
2022/09/21 06:53:15;;;;;;;8.80;5.10;;;;;;;11.05;97.24;100624.84;1676121;84;27334;-68
2022/09/21 06:55:42;;;;;;;7.28;5.25;;;;;;;11.04;97.23;100630.81;1675934;85;25572;-68
2022/09/21 06:58:08;;;;;;;7.00;4.83;;;;;;;11.07;97.41;100634.27;1665766;84;25421;-69
2022/09/21 07:00:35;;;;;;;7.58;4.80;;;;;;;11.12;97.72;100635.52;1696324;83;25710;-69
2022/09/21 07:03:01;;;;;;;5.25;3.95;;;;;;;11.14;97.59;100631.16;1697860;83;25582;-69
2022/09/21 07:05:28;;;;;;;4.03;3.45;;;;;;;11.15;96.97;100635.44;1676108;84;27388;-69
2022/09/21 07:07:58;;;;;;;4.50;3.58;;;;;;;11.13;96.75;100637.09;1696746;83;25711;-69
2022/09/21 07:10:25;;;;;;;5.78;3.27;;;;;;;11.13;96.48;100643.86;1677266;84;25290;-68
2022/09/21 07:12:52;;;;;;;4.58;3.17;;;;;;;11.15;96.45;100652.51;1695492;83;25713;-69
2022/09/21 07:15:20;;;;;;;5.37;3.10;;;;;;;11.19;96.66;100645.93;1693761;84;25693;-69
2022/09/21 07:17:46;;;;;;;7.53;5.37;;;;;;;11.22;96.61;100652.09;1678636;84;27323;-69
2022/09/21 07:20:13;;;;;;;4.17;3.33;;;;;;;11.26;96.53;100649.58;1695967;83;25726;-68
2022/09/21 07:22:39;;;;;;;4.50;2.95;;;;;;;11.31;97.12;100644.84;1677678;84;25806;-68
2022/09/21 07:25:09;;;;;;;7.90;4.72;;;;;;;11.34;96.46;100645.59;1677019;84;25770;-70
2022/09/21 07:27:35;;;;;;;3.98;3.08;;;;;;;11.36;95.94;100646.08;1695024;83;25355;-69
2022/09/21 07:30:05;;;;;;;3.85;3.15;;;;;;;11.40;95.78;100646.27;1716574;82;27622;-69
2022/09/21 07:32:32;;;;;;;3.95;2.58;;;;;;;11.45;96.12;100651.57;1715571;82;25646;-68
2022/09/21 07:35:00;;;;;;;2.87;2.52;;;;;;;11.51;96.46;100650.89;1715565;82;25303;-69
2022/09/21 07:37:27;;;;;;;2.55;2.20;;;;;;;11.57;95.74;100653.73;1717781;82;25468;-69
2022/09/21 07:39:54;;;;;;;3.50;2.22;;;;;;;11.62;95.59;100650.91;1697691;83;25801;-69
2022/09/21 07:42:21;;;;;;;4.50;3.17;;;;;;;11.73;95.99;100656.88;1694185;83;28253;-69
2022/09/21 07:44:49;;;;;;;2.77;2.35;;;;;;;11.84;96.58;100659.60;1693937;83;25688;-69
2022/09/21 07:47:16;;;;;;;3.60;2.50;;;;;;;11.94;95.87;100664.80;1693751;83;25797;-71
2022/09/21 07:49:44;;;;;;;4.45;2.70;;;;;;;12.07;95.82;100656.90;1693939;83;25623;-69
2022/09/21 07:52:10;;;;;;;4.10;2.60;;;;;;;12.18;95.72;100664.23;1696539;83;25539;-69
2022/09/21 07:54:39;;;;;;;3.85;2.83;;;;;;;12.26;95.24;100660.21;1723340;82;27756;-68
2022/09/21 07:59:51;;;;;;;4.90;2.55;;;;;;;12.47;94.49;100659.67;1675875;84;25731;-71
2022/09/21 08:02:18;;;;;;;2.92;2.27;;;;;;;12.49;92.81;100661.52;1695404;83;26812;-68
2022/09/21 08:04:44;;;;;;;2.37;1.95;;;;;;;12.51;92.80;100657.39;1725025;82;25602;-69
2022/09/21 08:07:12;;;;;;;2.25;2.02;;;;;;;12.61;92.54;100659.56;1718238;82;27301;-68
2022/09/21 08:09:39;;;;;;;4.25;2.10;;;;;;;12.65;91.48;100670.84;1698571;83;27197;-67
2022/09/21 08:12:07;;;;;;;2.10;1.90;;;;;;;12.72;91.70;100666.33;1693340;84;25745;-68
2022/09/21 08:14:34;;;;;;;2.33;2.10;;;;;;;12.80;90.96;100666.09;1678311;84;26322;-68
2022/09/21 08:17:01;;;;;;;3.75;2.12;;;;;;;12.85;90.76;100665.95;1695328;83;25762;-67
2022/09/21 08:19:27;;;;;;;3.58;2.12;;;;;;;12.89;90.50;100671.80;1693464;83;27400;-68
2022/09/21 08:21:53;;;;;;;10.18;7.00;;;;;;;12.92;89.64;100673.07;1675805;84;25830;-68
2022/09/21 08:24:19;;;;;;;5.67;4.67;;;;;;;12.93;89.78;100671.17;1696922;83;25641;-68
2022/09/21 08:26:46;;;;;;;5.17;2.45;;;;;;;12.94;89.34;100679.55;1677913;84;25616;-68
2022/09/21 08:29:15;;;;;;;5.50;2.50;;;;;;;12.92;88.56;100676.35;1677424;84;25630;-69
2022/09/21 08:31:42;;;;;;;9.70;6.12;;;;;;;12.86;87.47;100668.35;1676312;85;27427;-68
2022/09/21 08:34:09;;;;;;;6.00;3.87;;;;;;;12.82;87.24;100683.68;1668565;85;25658;-68
2022/09/21 08:36:35;;;;;;;6.45;2.58;;;;;;;12.76;87.37;100678.14;1673728;84;25415;-68
2022/09/21 08:39:02;;;;;;;5.72;2.75;;;;;;;12.75;87.59;100686.59;1663881;86;25641;-68
2022/09/21 08:41:50;;;;;;;3.92;2.65;;;;;;;12.74;87.55;100683.66;1697817;83;25482;-67
2022/09/21 08:44:34;;;;;;;5.60;2.77;;;;;;;12.73;87.52;100690.98;1680655;84;29584;-67
2022/09/21 08:47:06;;;;;;;12.37;3.52;;;;;;;12.72;87.52;100693.47;1675870;84;27273;-67
2022/09/21 08:49:36;;;;;;;6.03;2.85;;;;;;;12.68;87.34;100686.52;1655579;85;25663;-67
2022/09/21 08:52:12;;;;;;;7.37;3.75;;;;;;;12.67;86.97;100684.90;1668542;84;25677;-67
2022/09/21 08:54:50;;;;;;;9.75;3.37;;;;;;;12.66;86.99;100689.28;1723931;82;25370;-67
2022/09/21 08:57:18;;;;;;;7.42;3.00;;;;;;;12.73;87.65;100692.33;1694027;84;28322;-68
2022/09/21 08:59:47;;;;;;;4.45;3.00;;;;;;;12.77;87.64;100691.97;1661328;85;25562;-68
2022/09/21 09:02:49;;;;;;;4.95;2.98;;;;;;;12.83;87.56;100695.33;1731962;82;25577;-68
2022/09/21 09:05:43;;;;;;;3.30;2.62;;;;;;;12.85;87.69;100689.02;1681115;84;25714;-68
2022/09/21 09:08:42;;;;;;;8.35;3.12;;;;;;;12.89;87.46;100690.80;1702086;82;25548;-68
2022/09/21 09:11:42;;;;;;;3.33;3.02;;;;;;;12.95;87.61;100690.66;1719631;82;27949;-68
2022/09/21 09:14:50;;;;;;;5.72;2.77;;;;;;;13.00;87.26;100689.95;1626048;87;27170;-68
2022/09/21 09:17:44;;;;;;;4.08;3.15;;;;;;;13.03;86.60;100689.89;1640044;87;25480;-67
2022/09/21 09:20:24;;;;;;;4.40;3.60;;;;;;;13.08;86.52;100695.97;1631177;87;25697;-67
2022/09/21 09:23:23;;;;;;;6.17;3.35;;;;;;;13.08;85.93;100698.67;1639533;87;25707;-67
2022/09/21 09:25:53;;;;;;;3.30;2.95;;;;;;;13.08;85.46;100690.53;1610968;85;27314;-68
2022/09/21 09:28:33;;;;;;;5.20;3.83;;;;;;;13.11;85.19;100695.08;1644553;86;25444;-68
2022/09/21 09:31:04;;;;;;;;;;;;;;;13.07;84.54;100694.35;1651973;86;25751;-67
2022/09/21 09:33:45;;;;;;;3.35;3.02;;;;;;;13.03;84.58;100693.39;1641430;86;27897;-66
2022/09/21 09:36:13;;;;;;;3.37;3.08;;;;;;;13.08;85.29;100693.81;1635727;86;25803;-67
2022/09/21 09:38:57;;;;;;;4.95;3.77;;;;;;;13.14;84.87;100696.61;1659136;86;27321;-69
2022/09/21 09:41:59;;;;;;;3.55;3.20;;;;;;;13.21;85.16;100696.14;1624511;86;25740;-67
2022/09/21 09:45:06;;;;;;;4.83;3.02;;;;;;;13.30;85.64;100698.34;1619440;87;25498;-69
2022/09/21 09:48:10;;;;;;;4.83;2.80;;;;;;;13.42;84.98;100695.02;1639677;85;25591;-67
2022/09/21 09:50:41;;;;;;;3.40;3.10;;;;;;;13.48;84.55;100703.81;1684492;84;25879;-67
2022/09/21 09:53:15;;;;;;;3.02;2.72;;;;;;;13.49;83.85;100698.06;1649854;85;27538;-67
2022/09/21 09:55:52;;;;;;;3.70;3.17;;;;;;;13.47;83.39;100698.13;1684689;84;25734;-68
2022/09/21 09:58:44;;;;;;;3.83;3.40;;;;;;;13.41;83.03;100695.56;1695597;84;25538;-69
2022/09/21 10:01:41;;;;;;;4.40;3.08;;;;;;;13.39;82.97;100697.02;1694804;84;26377;-70
2022/09/21 10:04:16;;;;;;;3.83;3.37;;;;;;;13.36;83.28;100701.72;1699663;84;25794;-67
2022/09/21 10:06:46;;;;;;;5.15;2.75;;;;;;;13.33;83.28;100698.27;1694819;84;28019;-69
2022/09/21 10:09:30;;;;;;;5.20;3.42;;;;;;;13.29;83.31;100692.64;1693638;84;25741;-69
2022/09/21 10:12:19;;;;;;;13.15;10.03;;;;;;;13.26;83.41;100697.35;1693355;84;25732;-68
2022/09/21 10:14:55;;;;;;;30.25;18.15;;;;;;;13.22;83.63;100695.83;1683956;84;25648;-69
2022/09/21 10:17:24;;;;;;;5.40;4.08;;;;;;;13.20;83.88;100695.35;1649524;85;25808;-69
2022/09/21 10:20:02;;;;;;;4.30;3.90;;;;;;;13.20;84.18;100695.92;1670367;85;27390;-67
2022/09/21 10:22:33;;;;;;;5.55;4.40;;;;;;;13.22;84.58;100697.75;1633007;85;25788;-69
2022/09/21 10:24:58;;;;;;;6.20;4.90;;;;;;;13.33;85.59;100699.63;1674302;84;25799;-67
2022/09/21 10:27:55;;;;;;;6.83;4.20;;;;;;;13.71;89.05;100695.75;1686632;81;26333;-69
2022/09/21 10:30:37;;;;;;;4.78;3.50;;;;;;;14.06;87.73;100702.51;1597156;88;25841;-68
2022/09/21 10:33:07;;;;;;;7.70;3.90;;;;;;;14.42;87.57;100699.16;1596039;88;28079;-69
2022/09/21 10:35:39;;;;;;;4.70;4.17;;;;;;;14.63;86.09;100689.77;1596731;88;25813;-69
2022/09/21 10:38:13;;;;;;;4.03;3.12;;;;;;;14.70;84.87;100689.48;1596944;88;25746;-68
2022/09/21 10:40:43;;;;;;;5.65;3.10;;;;;;;14.76;83.57;100695.53;1598446;89;26488;-68
2022/09/21 10:43:23;;;;;;;4.90;3.40;;;;;;;14.72;82.73;100693.23;1597406;88;28998;-68
2022/09/21 10:45:57;;;;;;;8.83;3.67;;;;;;;14.66;82.10;100689.09;1594487;89;27383;-67
2022/09/21 10:48:26;;;;;;;5.42;3.27;;;;;;;14.55;81.95;100691.35;1598829;88;25718;-69
2022/09/21 10:50:55;;;;;;;5.87;4.20;;;;;;;14.47;82.06;100696.26;1599163;88;25753;-68
2022/09/21 10:53:28;;;;;;;5.77;3.60;;;;;;;14.33;82.16;100705.41;1599313;89;25781;-67
2022/09/21 10:56:07;;;;;;;5.37;4.20;;;;;;;14.23;82.39;100698.17;1652686;85;25678;-67
2022/09/21 10:58:34;;;;;;;;;;;;;;;14.08;82.43;100696.21;1655586;85;27448;-66
2022/09/21 11:01:24;;;;;;;8.68;4.05;;;;;;;13.98;82.58;100700.05;1685306;84;25612;-67
2022/09/21 11:04:06;;;;;;;5.55;4.12;;;;;;;13.92;83.22;100697.25;1681947;84;25729;-68
2022/09/21 11:06:41;;;;;;;4.08;3.67;;;;;;;13.93;84.34;100702.15;1678777;84;25705;-68
2022/09/21 11:09:25;;;;;;;4.35;3.90;;;;;;;13.97;84.96;100696.30;1681434;84;25667;-68
2022/09/21 11:12:16;;;;;;;5.95;4.15;;;;;;;14.04;86.04;100693.09;1663338;85;29425;-67
2022/09/21 11:14:48;;;;;;;4.55;3.90;;;;;;;14.16;86.55;100690.50;1632832;86;25752;-66
2022/09/21 11:17:36;;;;;;;5.85;4.28;;;;;;;14.27;86.86;100690.41;1612357;88;25672;-66
2022/09/21 11:20:14;;;;;;;6.13;4.20;;;;;;;14.35;86.84;100692.85;1614827;88;25824;-67
2022/09/21 11:23:01;;;;;;;5.55;4.33;;;;;;;14.50;87.70;100694.25;1586476;89;25784;-66
2022/09/21 11:25:51;;;;;;;6.33;4.53;;;;;;;14.69;87.98;100688.44;1582239;85;27374;-68
2022/09/21 11:28:35;;;;;;;;;;;;;;;14.98;88.77;100679.48;1575036;89;26614;-67
2022/09/21 11:31:13;;;;;;;4.28;3.83;;;;;;;15.45;90.65;100683.43;1607311;88;25966;-67
2022/09/21 11:34:29;;;;;;;6.08;3.25;;;;;;;16.32;93.15;100682.43;1590944;89;25989;-67
2022/09/21 11:37:16;;;;;;;3.02;2.83;;;;;;;17.11;90.57;100674.05;1585730;89;26238;-67
2022/09/21 11:40:02;;;;;;;3.55;2.17;;;;;;;17.44;85.35;100670.36;1580736;89;27496;-65
2022/09/21 11:43:02;;;;;;;2.75;2.52;;;;;;;17.77;81.91;100670.69;1587822;89;25681;-66
2022/09/21 11:46:04;;;;;;;2.50;2.30;;;;;;;18.05;81.62;100670.13;1608809;88;25794;-66
2022/09/21 11:48:55;;;;;;;3.15;2.83;;;;;;;18.24;78.87;100668.66;1628130;87;25779;-65
2022/09/21 11:51:53;;;;;;;3.62;2.62;;;;;;;18.23;77.11;100669.80;1599764;88;25862;-66
2022/09/21 11:54:34;;;;;;;3.62;2.58;;;;;;;18.37;76.95;100667.44;1675618;84;27706;-67
2022/09/21 11:57:21;;;;;;;3.00;2.70;;;;;;;18.54;76.06;100662.74;1687519;84;25437;-66
2022/09/21 12:00:14;;;;;;;2.50;2.30;;;;;;;18.44;74.82;100670.35;1676782;84;26334;-66
2022/09/21 12:03:22;;;;;;;3.17;2.87;;;;;;;18.23;73.17;100667.06;1675635;84;25622;-67